Time;durP1;ratioP1;P1;durP2;ratioP2;P2;SDS_P1;SDS_P2;PMS_P1;PMS_P2;Temp;Humidity;BMP_temperature;BMP_pressure;BME280_temperature;BME280_humidity;BME280_pressure;Samples;Min_cycle;Max_cycle;Signal;HPM_P1;HPM_P2
2023/07/05 00:00:32;;;;;;;29.20;26.20;;;;;;;17.70;55.54;100370.08;110410;1263;21965;-80
2023/07/05 00:03:35;;;;;;;28.50;25.40;;;;;;;17.62;55.71;100365.84;111173;1256;22019;-82
2023/07/05 00:06:11;;;;;;;29.60;26.40;;;;;;;17.57;55.79;100366.21;111297;1256;22251;-79
2023/07/05 00:08:41;;;;;;;32.20;26.80;;;;;;;17.53;55.71;100363.30;111120;1256;24382;-81
2023/07/05 00:11:13;;;;;;;31.60;26.90;;;;;;;17.50;55.90;100361.05;110986;1256;22700;-81
2023/07/05 00:13:43;;;;;;;29.00;25.90;;;;;;;17.46;55.96;100360.76;110626;1263;23059;-81
2023/07/05 00:16:27;;;;;;;30.70;26.90;;;;;;;17.43;56.15;100363.96;109993;1268;21969;-82
2023/07/05 00:19:11;;;;;;;29.40;26.40;;;;;;;17.39;56.34;100361.45;110335;1267;21966;-80
2023/07/05 00:21:46;;;;;;;29.70;26.30;;;;;;;17.37;56.56;100363.98;110118;1260;22764;-81
2023/07/05 00:24:23;;;;;;;37.20;27.30;;;;;;;17.32;56.65;100362.92;109616;1272;22126;-81
2023/07/05 00:27:02;;;;;;;32.60;27.70;;;;;;;17.27;56.88;100366.44;109035;1279;22007;-82
2023/07/05 00:29:58;;;;;;;30.50;26.10;;;;;;;17.19;57.02;100365.91;109098;1279;23715;-81
2023/07/05 00:32:39;;;;;;;29.40;26.30;;;;;;;17.05;57.04;100352.20;109143;1274;21991;-82
2023/07/05 00:35:16;;;;;;;30.40;27.20;;;;;;;17.08;57.42;100364.28;109562;1270;23027;-81
2023/07/05 00:37:49;;;;;;;29.00;25.90;;;;;;;17.06;57.46;100362.33;109691;1270;21982;-81
2023/07/05 00:40:29;;;;;;;28.70;25.50;;;;;;;17.07;57.57;100364.75;109759;1270;22023;-81
2023/07/05 00:43:03;;;;;;;28.00;25.20;;;;;;;17.04;57.90;100366.51;109915;1270;22045;-82
2023/07/05 00:46:13;;;;;;;30.10;26.90;;;;;;;16.97;58.20;100350.82;110472;1262;24124;-80
2023/07/05 00:49:14;;;;;;;33.60;26.80;;;;;;;17.03;58.27;100365.56;110746;1257;21957;-80
2023/07/05 00:52:01;;;;;;;32.60;25.10;;;;;;;17.00;58.33;100363.60;111337;1256;22507;-81
2023/07/05 00:54:38;;;;;;;32.90;25.90;;;;;;;16.98;58.26;100362.50;111102;1256;21976;-79
2023/07/05 00:57:23;;;;;;;30.10;26.60;;;;;;;16.88;58.19;100361.91;110736;1262;23766;-79
2023/07/05 01:00:12;;;;;;;30.40;27.10;;;;;;;16.75;58.31;100362.54;109900;1268;22240;-82
2023/07/05 01:02:51;;;;;;;31.40;27.70;;;;;;;16.69;58.55;100356.61;109723;1267;21974;-81
2023/07/05 01:05:26;;;;;;;29.10;25.70;;;;;;;16.70;58.74;100356.33;110157;1267;21967;-81
2023/07/05 01:08:04;;;;;;;28.40;25.40;;;;;;;16.73;58.66;100358.57;110202;1267;21969;-81
2023/07/05 01:10:49;;;;;;;29.20;25.30;;;;;;;16.74;58.81;100358.19;109781;1267;21974;-82
2023/07/05 01:13:45;;;;;;;28.20;25.30;;;;;;;16.71;58.84;100356.95;109270;1273;22447;-82
2023/07/05 01:17:07;;;;;;;30.30;26.30;;;;;;;16.69;59.03;100360.11;109177;1274;21980;-81
2023/07/05 01:20:00;;;;;;;26.60;23.90;;;;;;;16.63;59.15;100355.37;109311;1276;22758;-81
2023/07/05 01:23:01;;;;;;;26.90;24.10;;;;;;;16.59;59.44;100351.05;109091;1279;21996;-80
2023/07/05 01:25:37;;;;;;;;;;;;;;;16.55;59.62;100349.52;109064;1280;23116;-81
2023/07/05 01:28:36;;;;;;;27.30;24.10;;;;;;;16.44;59.76;100350.95;109053;1280;22022;-81
2023/07/05 01:31:57;;;;;;;29.10;25.10;;;;;;;16.38;59.82;100353.42;108974;1277;22052;-81
2023/07/05 01:35:04;;;;;;;27.50;24.60;;;;;;;16.32;60.00;100353.77;109418;1272;22342;-81
2023/07/05 01:37:45;;;;;;;28.20;24.00;;;;;;;16.28;60.06;100354.21;109489;1272;23046;-80
2023/07/05 01:40:22;;;;;;;27.10;24.20;;;;;;;16.29;60.14;100354.88;109771;1266;21957;-79
2023/07/05 01:43:02;;;;;;;26.10;23.40;;;;;;;16.29;60.08;100355.92;109590;1273;21996;-81
2023/07/05 01:46:04;;;;;;;25.80;22.80;;;;;;;16.28;60.33;100355.98;109080;1278;23459;-82
2023/07/05 01:49:03;;;;;;;28.30;25.40;;;;;;;16.27;60.50;100355.48;109104;1274;22008;-82
2023/07/05 01:52:00;;;;;;;29.10;25.90;;;;;;;16.28;60.45;100353.54;108808;1283;21990;-82
2023/07/05 01:55:02;;;;;;;29.60;26.70;;;;;;;16.28;60.20;100349.29;108943;1273;21982;-80
2023/07/05 01:58:07;;;;;;;29.00;26.00;;;;;;;16.28;60.01;100350.88;109242;1276;23709;-80
2023/07/05 02:00:45;;;;;;;27.30;23.50;;;;;;;16.21;59.96;100344.81;109092;1275;21977;-81
2023/07/05 02:03:25;;;;;;;23.90;21.60;;;;;;;16.19;59.79;100347.25;109410;1270;22023;-79
2023/07/05 02:06:03;;;;;;;27.60;24.70;;;;;;;16.15;59.95;100349.91;109147;1276;22004;-81
2023/07/05 02:08:38;;;;;;;39.30;28.30;;;;;;;16.13;60.19;100349.54;109117;1276;22878;-80
2023/07/05 02:11:15;;;;;;;30.60;26.50;;;;;;;16.09;60.20;100344.29;109217;1275;23695;-83
2023/07/05 02:14:11;;;;;;;31.40;24.90;;;;;;;16.08;60.24;100348.44;109450;1275;23890;-80
2023/07/05 02:16:54;;;;;;;28.30;24.90;;;;;;;16.04;60.34;100346.00;109595;1270;22023;-82
2023/07/05 02:20:13;;;;;;;27.90;24.90;;;;;;;16.01;60.69;100345.88;110348;1266;23774;-83
2023/07/05 02:23:09;;;;;;;28.30;23.90;;;;;;;15.98;60.83;100350.06;109812;1270;22444;-83
2023/07/05 02:25:46;;;;;;;29.40;26.40;;;;;;;15.97;60.82;100348.20;110296;1266;23692;-82
2023/07/05 02:28:43;;;;;;;31.10;27.90;;;;;;;15.93;60.79;100347.02;109845;1262;21984;-82
2023/07/05 02:31:40;;;;;;;29.40;25.20;;;;;;;15.87;60.76;100349.50;110742;1258;21799;-81
2023/07/05 02:34:36;;;;;;;;;;;;;;;;;;;;;
2023/07/05 02:37:10;;;;;;;29.40;26.40;;;;;;;15.73;60.84;100351.52;109638;1271;21981;-83
2023/07/05 02:40:07;;;;;;;29.70;25.50;;;;;;;15.70;60.88;100349.42;109584;1271;21997;-83
2023/07/05 02:46:15;;;;;;;31.50;27.90;;;;;;;15.61;61.07;100344.51;109370;1275;23643;-81
2023/07/05 02:48:56;;;;;;;29.70;25.90;;;;;;;15.62;61.04;100345.00;109250;1275;21984;-82
2023/07/05 02:51:32;;;;;;;28.00;25.10;;;;;;;15.62;61.22;100348.15;109262;1272;21985;-82
2023/07/05 02:54:19;;;;;;;;;;;;;;;15.62;61.23;100349.71;109647;1267;23034;-79
2023/07/05 02:56:54;;;;;;;31.50;25.90;;;;;;;15.55;61.38;100349.79;109618;1273;22195;-81
2023/07/05 02:59:39;;;;;;;32.40;28.50;;;;;;;15.56;61.57;100349.39;109395;1273;21978;-83
2023/07/05 03:02:12;;;;;;;33.50;28.30;;;;;;;15.57;61.59;100349.65;109689;1271;23797;-82
2023/07/05 03:04:50;;;;;;;34.80;28.10;;;;;;;15.56;61.37;100348.65;109177;1277;23064;-82
2023/07/05 03:07:36;;;;;;;32.10;28.90;;;;;;;15.55;61.39;100346.77;109103;1277;23081;-81
2023/07/05 03:10:10;;;;;;;32.50;29.00;;;;;;;15.54;61.42;100343.67;108730;1284;22805;-82
2023/07/05 03:12:54;;;;;;;31.20;27.80;;;;;;;15.54;61.42;100341.27;108724;1283;22064;-79
2023/07/05 03:15:30;;;;;;;31.20;27.80;;;;;;;15.55;61.54;100342.79;108907;1279;22018;-80
2023/07/05 03:18:06;;;;;;;34.40;30.30;;;;;;;15.57;61.74;100342.27;108936;1279;21985;-81
2023/07/05 03:20:50;;;;;;;33.00;29.70;;;;;;;15.61;61.91;100345.35;109025;1273;22474;-82
2023/07/05 03:23:24;;;;;;;33.90;27.70;;;;;;;15.65;62.01;100338.16;110095;1267;21983;-82
2023/07/05 03:26:07;;;;;;;34.00;27.60;;;;;;;15.69;62.02;100339.66;110387;1264;22057;-83
2023/07/05 03:28:42;;;;;;;31.80;26.40;;;;;;;15.74;61.99;100338.86;110497;1261;21964;-82
2023/07/05 03:31:18;;;;;;;30.10;26.80;;;;;;;15.81;61.97;100336.34;110754;1261;21968;-81
2023/07/05 03:33:53;;;;;;;30.30;26.90;;;;;;;15.83;61.90;100335.37;110533;1261;23033;-81
2023/07/05 03:36:30;;;;;;;36.00;29.10;;;;;;;15.86;61.76;100334.64;110737;1256;21955;-81
2023/07/05 03:39:04;;;;;;;31.30;28.20;;;;;;;15.90;61.97;100342.27;111223;1256;22372;-81
2023/07/05 03:41:51;;;;;;;;;;;;;;;;;;;;;
2023/07/05 03:44:24;;;;;;;33.30;28.30;;;;;;;15.99;61.88;100344.23;110842;1263;22062;-81
2023/07/05 03:46:56;;;;;;;36.10;29.80;;;;;;;16.05;61.65;100340.83;109922;1270;22036;-80
2023/07/05 03:50:19;;;;;;;31.70;28.00;;;;;;;16.13;61.42;100336.54;109762;1270;21971;-83
2023/07/05 03:53:19;;;;;;;30.80;27.40;;;;;;;16.23;61.24;100336.44;109860;1270;22782;-82
2023/07/05 03:56:06;;;;;;;30.90;27.50;;;;;;;16.32;60.97;100335.20;109910;1270;22015;-82
2023/07/05 03:58:46;;;;;;;30.80;26.80;;;;;;;16.38;60.76;100333.61;109454;1275;22007;-82
2023/07/05 04:01:33;;;;;;;29.80;26.30;;;;;;;16.45;60.72;100333.83;109238;1275;22005;-82
2023/07/05 04:04:18;;;;;;;29.00;25.90;;;;;;;16.53;60.63;100331.91;109220;1275;22277;-83
2023/07/05 04:07:04;;;;;;;31.00;27.70;;;;;;;16.63;60.62;100329.95;109799;1269;23655;-80
2023/07/05 04:10:00;;;;;;;29.20;25.80;;;;;;;16.72;60.64;100333.54;110364;1262;21970;-83
2023/07/05 04:13:45;;;;;;;30.50;25.50;;;;;;;16.81;60.55;100336.20;110727;1264;21996;-83
2023/07/05 04:17:54;;;;;;;37.70;27.00;;;;;;;16.94;60.64;100339.04;110088;1268;22020;-83
2023/07/05 04:21:06;;;;;;;31.40;26.50;;;;;;;17.09;60.63;100341.75;109312;1276;22292;-84
2023/07/05 04:23:43;;;;;;;31.70;25.80;;;;;;;17.26;60.31;100338.52;109228;1276;21989;-81
2023/07/05 04:26:23;;;;;;;28.70;25.40;;;;;;;17.40;59.52;100330.41;109188;1276;23042;-82
2023/07/05 04:29:18;;;;;;;34.50;23.90;;;;;;;17.54;58.66;100332.42;108809;1283;22059;-80
2023/07/05 04:32:08;;;;;;;26.80;23.90;;;;;;;17.65;57.98;100329.61;108810;1270;22100;-80
2023/07/05 04:35:22;;;;;;;27.10;24.20;;;;;;;17.92;56.71;100327.04;108361;1281;544445;-80
2023/07/05 04:37:58;;;;;;;28.70;24.10;;;;;;;18.05;56.39;100330.59;110077;1267;21955;-81
2023/07/05 04:40:36;;;;;;;24.90;22.30;;;;;;;18.20;55.80;100332.05;111152;1258;22025;-79
2023/07/05 04:43:07;;;;;;;26.20;23.00;;;;;;;18.35;55.25;100328.54;111161;1258;24610;-77
2023/07/05 04:46:01;;;;;;;30.60;23.30;;;;;;;18.49;54.69;100328.03;110980;1260;21958;-80
2023/07/05 04:48:47;;;;;;;26.70;24.00;;;;;;;18.65;54.21;100327.57;108151;1263;2762018;-80
2023/07/05 04:51:18;;;;;;;28.00;23.40;;;;;;;18.84;53.82;100329.80;110605;1263;24319;-79
2023/07/05 04:54:02;;;;;;;31.50;23.60;;;;;;;19.04;53.49;100329.55;110635;1263;22063;-78
2023/07/05 04:56:35;;;;;;;28.20;23.80;;;;;;;19.26;53.13;100321.06;110089;1264;24433;-78
2023/07/05 04:59:05;;;;;;;27.90;24.20;;;;;;;19.53;52.84;100318.00;110382;1263;22154;-78
2023/07/05 05:01:35;;;;;;;27.80;23.30;;;;;;;19.81;52.05;100315.89;109992;1269;22755;-79
2023/07/05 05:04:05;;;;;;;24.70;22.20;;;;;;;20.09;51.39;100312.51;109673;1270;21974;-79
2023/07/05 05:06:39;;;;;;;25.80;23.10;;;;;;;20.39;50.29;100315.93;109899;1265;23725;-79
2023/07/05 05:09:12;;;;;;;25.80;22.50;;;;;;;20.62;49.26;100312.21;109667;1270;23602;-80
2023/07/05 05:11:50;;;;;;;24.40;21.60;;;;;;;20.79;48.54;100312.27;109674;1270;23787;-80
2023/07/05 05:14:33;;;;;;;27.90;22.80;;;;;;;20.99;48.30;100314.69;109682;1270;23057;-79
2023/07/05 05:17:11;;;;;;;26.00;22.00;;;;;;;21.26;47.77;100307.85;109637;1270;21995;-81
2023/07/05 05:19:41;;;;;;;22.70;20.20;;;;;;;21.47;47.20;100308.81;109519;1269;21986;-81
2023/07/05 05:22:22;;;;;;;23.90;19.70;;;;;;;21.70;46.89;100302.09;109589;1267;21965;-80
2023/07/05 05:24:59;;;;;;;24.10;19.50;;;;;;;22.00;46.64;100289.44;110090;1267;21991;-82
2023/07/05 05:27:30;;;;;;;20.70;18.40;;;;;;;22.33;46.25;100297.39;110242;1264;23595;-81
2023/07/05 05:30:07;;;;;;;21.30;17.00;;;;;;;22.64;45.13;100296.08;110511;1264;21969;-80
2023/07/05 05:32:37;;;;;;;20.00;15.10;;;;;;;22.84;43.81;100298.67;110418;1264;21966;-82
2023/07/05 05:35:10;;;;;;;18.80;14.80;;;;;;;22.98;43.44;100294.03;110396;1264;22051;-81
2023/07/05 05:37:45;;;;;;;17.00;13.50;;;;;;;23.25;43.43;100292.03;110515;1259;22097;-83
2023/07/05 05:40:21;;;;;;;15.20;12.90;;;;;;;23.52;42.69;100288.73;111223;1255;21999;-79
2023/07/05 05:42:55;;;;;;;16.00;13.20;;;;;;;23.80;42.01;100286.68;111331;1254;21969;-80
2023/07/05 05:45:31;;;;;;;14.00;12.60;;;;;;;23.93;40.31;100291.36;110805;1260;21970;-79
2023/07/05 05:48:32;;;;;;;16.60;13.70;;;;;;;23.95;39.74;100290.13;110417;1265;21968;-79
2023/07/05 05:51:25;;;;;;;18.10;14.30;;;;;;;23.92;39.74;100285.05;109747;1270;21982;-80
2023/07/05 05:54:11;;;;;;;17.00;15.20;;;;;;;24.02;39.98;100281.44;109663;1270;21971;-81
2023/07/05 05:56:43;;;;;;;16.90;14.00;;;;;;;24.29;39.95;100275.23;109704;1269;24972;-79
2023/07/05 05:59:38;;;;;;;18.20;14.10;;;;;;;24.56;39.03;100277.91;109358;1274;21978;-80
2023/07/05 06:02:32;;;;;;;;;;;;;;;24.70;38.45;100277.67;109364;1274;24417;-81
2023/07/05 06:05:28;;;;;;;17.70;15.40;;;;;;;24.75;38.47;100279.19;109797;1267;22107;-79
2023/07/05 06:08:27;;;;;;;23.50;16.40;;;;;;;24.84;38.06;100281.30;109888;1267;21977;-79
2023/07/05 06:11:07;;;;;;;19.60;15.70;;;;;;;25.04;38.44;100285.73;109999;1270;22306;-80
2023/07/05 06:14:21;;;;;;;18.60;15.50;;;;;;;25.30;37.93;100288.70;109698;1270;21981;-77
2023/07/05 06:17:53;;;;;;;21.00;16.60;;;;;;;25.53;37.52;100292.25;109146;1275;21994;-79
2023/07/05 06:21:02;;;;;;;20.50;17.30;;;;;;;25.91;37.65;100279.76;109105;1275;21983;-78
2023/07/05 06:23:52;;;;;;;20.50;17.60;;;;;;;26.13;36.26;100277.23;109193;1274;23119;-78
2023/07/05 06:26:45;;;;;;;21.10;16.00;;;;;;;26.10;35.66;100278.05;109363;1274;22998;-77
2023/07/05 06:29:35;;;;;;;18.60;16.30;;;;;;;26.22;36.18;100278.73;109580;1270;24290;-77
2023/07/05 06:32:47;;;;;;;;;;;;;;;;;;;;;
2023/07/05 06:36:00;;;;;;;19.50;17.20;;;;;;;26.38;35.60;100274.02;110081;1264;22724;-79
2023/07/05 06:39:06;;;;;;;20.50;16.60;;;;;;;26.40;35.26;100272.02;109931;1268;22231;-78
2023/07/05 06:42:07;;;;;;;18.80;17.00;;;;;;;26.44;35.04;100261.28;110338;1259;22835;-78
2023/07/05 06:45:14;;;;;;;25.00;18.10;;;;;;;26.51;33.91;100262.67;110874;1259;21960;-78
2023/07/05 06:48:15;;;;;;;;;;;;;;;26.48;34.24;100261.70;110820;1259;21949;-78
2023/07/05 06:51:03;;;;;;;21.80;17.60;;;;;;;26.36;34.62;100257.98;110864;1261;22842;-79
2023/07/05 06:54:53;;;;;;;21.80;16.90;;;;;;;26.52;35.12;100259.16;110342;1261;21975;-79
2023/07/05 07:01:19;;;;;;;20.00;16.80;;;;;;;27.20;33.61;100252.19;109858;1269;21969;-77
2023/07/05 07:03:49;;;;;;;24.40;17.30;;;;;;;27.48;33.61;100251.17;109938;1269;21977;-76
2023/07/05 07:09:58;;;;;;;;;;;;;;;;;;;;;
2023/07/05 07:12:35;;;;;;;19.00;16.50;;;;;;;27.91;32.07;100251.73;110310;1265;21940;-78
2023/07/05 07:15:41;;;;;;;;;;;;;;;;;;;;;
2023/07/05 07:18:24;;;;;;;21.80;16.40;;;;;;;27.83;31.49;100254.01;110429;1262;23068;-78
2023/07/05 07:21:22;;;;;;;18.40;15.30;;;;;;;27.64;31.33;100243.42;110460;1261;21937;-79
2023/07/05 07:24:17;;;;;;;19.70;16.70;;;;;;;27.45;31.10;100243.08;110586;1261;22736;-77
2023/07/05 07:27:12;;;;;;;17.50;15.90;;;;;;;27.42;31.69;100238.85;110450;1258;21965;-79
2023/07/05 07:30:16;;;;;;;23.80;17.70;;;;;;;27.41;31.19;100230.92;110543;1255;22513;-79
2023/07/05 07:33:01;;;;;;;;;;;;;;;;;;;;;
2023/07/05 07:35:55;;;;;;;;;;;;;;;;;;;;;
2023/07/05 07:38:39;;;;;;;17.80;15.90;;;;;;;27.80;30.63;100227.89;110609;1259;23707;-81
2023/07/05 07:41:22;;;;;;;17.80;16.00;;;;;;;27.95;31.15;100227.42;110506;1263;22031;-78
2023/07/05 07:44:20;;;;;;;17.50;15.60;;;;;;;28.12;30.75;100226.04;110604;1263;22305;-79
2023/07/05 07:47:32;;;;;;;22.10;17.30;;;;;;;28.17;30.48;100225.48;110182;1263;22170;-77
2023/07/05 07:50:17;;;;;;;21.60;18.30;;;;;;;28.14;30.54;100209.80;110398;1263;22279;-79
2023/07/05 07:52:48;;;;;;;18.60;16.80;;;;;;;28.25;29.94;100213.98;110454;1263;23677;-77
2023/07/05 07:55:31;;;;;;;20.70;16.80;;;;;;;28.40;29.90;100209.99;109506;1268;21972;-77
2023/07/05 07:58:10;;;;;;;17.80;16.00;;;;;;;28.79;29.77;100207.32;109952;1267;22968;-77
2023/07/05 08:00:54;;;;;;;20.50;18.40;;;;;;;29.07;29.40;100205.11;110504;1260;21929;-79
2023/07/05 08:03:49;;;;;;;20.80;18.60;;;;;;;29.33;28.99;100202.92;110686;1260;21963;-77
2023/07/05 08:06:34;;;;;;;20.70;18.50;;;;;;;29.57;28.58;100198.05;110126;1265;21974;-79
2023/07/05 08:09:08;;;;;;;19.00;17.10;;;;;;;29.77;28.53;100197.44;109934;1269;22483;-78
2023/07/05 08:11:56;;;;;;;19.90;16.30;;;;;;;30.04;28.02;100193.48;109637;1269;23760;-78
2023/07/05 08:14:37;;;;;;;17.90;16.30;;;;;;;30.20;27.59;100189.71;110283;1266;21987;-79
2023/07/05 08:17:11;;;;;;;18.60;16.70;;;;;;;30.38;27.48;100186.36;110144;1266;21928;-78
2023/07/05 08:19:47;;;;;;;19.00;17.10;;;;;;;30.56;27.23;100181.95;110179;1266;21942;-79
2023/07/05 08:22:28;;;;;;;19.70;15.60;;;;;;;30.68;27.02;100179.70;110026;1266;22530;-78
2023/07/05 08:24:59;;;;;;;18.30;16.20;;;;;;;30.77;26.94;100176.30;110196;1265;23653;-78
2023/07/05 08:27:33;;;;;;;18.80;16.80;;;;;;;30.95;26.79;100172.44;110382;1262;22007;-77
2023/07/05 08:30:09;;;;;;;17.80;15.90;;;;;;;31.07;26.65;100170.38;110063;1268;21969;-77
2023/07/05 08:32:42;;;;;;;19.40;17.10;;;;;;;31.12;26.40;100169.91;110666;1262;23620;-76
2023/07/05 08:35:13;;;;;;;18.70;14.50;;;;;;;31.16;26.36;100167.86;110586;1262;21957;-77
2023/07/05 08:37:49;;;;;;;16.60;14.90;;;;;;;31.36;26.47;100167.20;110364;1259;22995;-77
2023/07/05 08:40:43;;;;;;;17.40;14.60;;;;;;;31.58;26.25;100164.65;110532;1262;22714;-76
2023/07/05 08:43:59;;;;;;;16.60;14.30;;;;;;;31.82;26.26;100164.85;110504;1261;23680;-77
2023/07/05 08:47:11;;;;;;;15.00;13.70;;;;;;;31.86;25.78;100162.70;110342;1254;23820;-77
2023/07/05 08:50:00;;;;;;;14.00;12.60;;;;;;;31.78;25.74;100158.19;110619;1262;22971;-77
2023/07/05 08:53:19;;;;;;;14.60;11.90;;;;;;;31.75;26.08;100158.15;110011;1268;22771;-78
2023/07/05 08:56:18;;;;;;;11.60;9.90;;;;;;;31.79;26.18;100162.67;109998;1267;23309;-80
2023/07/05 08:59:32;;;;;;;13.10;10.10;;;;;;;31.83;25.83;100143.35;109084;1274;22394;-77
2023/07/05 09:02:02;;;;;;;10.20;9.20;;;;;;;32.06;25.86;100152.40;109112;1274;21980;-76
2023/07/05 09:04:39;;;;;;;8.70;7.90;;;;;;;32.19;25.52;100151.73;109060;1274;22085;-77
2023/07/05 09:08:42;;;;;;;10.70;8.50;;;;;;;32.13;25.72;100148.44;109175;1274;21990;-77
2023/07/05 09:11:36;;;;;;;12.30;8.60;;;;;;;31.95;25.40;100147.78;109077;1275;22062;-76
2023/07/05 09:14:49;;;;;;;10.40;9.30;;;;;;;31.72;25.60;100150.27;109088;1275;23803;-77
2023/07/05 09:17:23;;;;;;;10.40;8.70;;;;;;;31.59;26.04;100139.23;108922;1277;21980;-77
2023/07/05 09:20:31;;;;;;;9.30;8.40;;;;;;;31.75;26.14;100134.67;109095;1276;22021;-78
2023/07/05 09:23:39;;;;;;;10.70;7.10;;;;;;;31.95;25.54;100138.14;109182;1271;23058;-77
2023/07/05 09:26:37;;;;;;;10.30;7.50;;;;;;;32.03;25.38;100133.69;109623;1258;23024;-79
2023/07/05 09:30:13;;;;;;;11.10;7.00;;;;;;;32.07;25.57;100129.27;109424;1271;23753;-78
2023/07/05 09:33:19;;;;;;;8.40;7.30;;;;;;;32.21;24.87;100133.49;109132;1272;21982;-81
2023/07/05 09:35:55;;;;;;;11.80;7.00;;;;;;;32.33;24.10;100128.24;108965;1276;22383;-79
2023/07/05 09:38:45;;;;;;;7.10;6.40;;;;;;;32.50;23.94;100133.04;109099;1276;23715;-78
2023/07/05 09:41:42;;;;;;;9.90;7.50;;;;;;;32.55;24.21;100128.73;109016;1276;23344;-76
2023/07/05 09:44:29;;;;;;;8.60;7.10;;;;;;;32.58;24.10;100119.27;108728;1280;21988;-82
2023/07/05 09:47:25;;;;;;;9.50;7.70;;;;;;;32.68;23.79;100112.16;109237;1273;22076;-81
2023/07/05 09:50:29;;;;;;;9.20;6.70;;;;;;;32.51;23.89;100119.45;109562;1266;23917;-80
2023/07/05 09:54:03;;;;;;;8.40;6.90;;;;;;;32.30;23.59;100111.95;109557;1267;23721;-82
2023/07/05 09:57:09;;;;;;;8.70;7.20;;;;;;;32.12;23.91;100109.77;110310;1268;21987;-79
2023/07/05 10:00:54;;;;;;;9.30;7.10;;;;;;;31.97;24.38;100104.23;110129;1268;24300;-81
2023/07/05 10:03:58;;;;;;;8.80;7.90;;;;;;;32.14;24.68;100101.67;110535;1262;23043;-78
2023/07/05 10:06:47;;;;;;;;;;;;;;;;;;;;;
2023/07/05 10:09:52;;;;;;;11.30;9.10;;;;;;;32.35;24.46;100093.59;110840;1256;21959;-83
2023/07/05 10:13:21;;;;;;;9.70;8.50;;;;;;;32.32;24.92;100092.17;111181;1253;22120;-80
2023/07/05 10:17:19;;;;;;;8.20;7.40;;;;;;;32.25;24.27;100092.34;110538;1265;22025;-83
2023/07/05 10:20:35;;;;;;;9.70;8.10;;;;;;;32.20;23.46;100092.55;110560;1265;22739;-82
2023/07/05 10:24:19;;;;;;;9.50;8.50;;;;;;;32.17;23.46;100093.21;109840;1272;21984;-82
2023/07/05 10:27:08;;;;;;;;;;;;;;;32.18;23.44;100087.65;109707;1272;21965;-81
2023/07/05 10:29:42;;;;;;;11.00;8.50;;;;;;;32.17;23.70;100083.45;109715;1268;22043;-82
2023/07/05 10:32:25;;;;;;;10.10;8.10;;;;;;;32.37;23.91;100075.05;109950;1270;23056;-79
2023/07/05 10:35:20;;;;;;;9.40;6.90;;;;;;;32.57;23.48;100079.36;109077;1275;23619;-79
2023/07/05 10:38:03;;;;;;;11.80;6.90;;;;;;;32.68;23.35;100084.14;109156;1275;23640;-78
2023/07/05 10:40:41;;;;;;;7.60;6.90;;;;;;;32.79;23.05;100085.38;109325;1268;22010;-79
2023/07/05 10:43:50;;;;;;;9.60;7.20;;;;;;;32.84;23.16;100075.14;109614;1268;22755;-79
2023/07/05 10:46:34;;;;;;;9.30;7.40;;;;;;;32.88;23.19;100062.98;110016;1264;23100;-81
2023/07/05 10:49:22;;;;;;;7.00;6.30;;;;;;;32.94;23.00;100062.52;110442;1260;21965;-79
2023/07/05 10:52:10;;;;;;;7.70;6.10;;;;;;;32.86;22.79;100053.18;110726;1261;23482;-77
2023/07/05 10:54:59;;;;;;;7.70;6.70;;;;;;;32.78;22.86;100050.52;111186;1254;21963;-77
2023/07/05 10:57:48;;;;;;;8.60;7.00;;;;;;;32.62;22.78;100044.57;111340;1254;21994;-78
2023/07/05 11:00:48;;;;;;;6.70;6.00;;;;;;;32.35;23.14;100046.77;110910;1258;21963;-81
2023/07/05 11:04:05;;;;;;;8.30;6.50;;;;;;;32.11;23.59;100045.19;110821;1261;23042;-80
2023/07/05 11:07:29;;;;;;;11.00;6.00;;;;;;;31.92;24.04;100050.38;110844;1260;21973;-82
2023/07/05 11:10:06;;;;;;;7.60;6.00;;;;;;;31.96;24.22;100046.72;111005;1260;22467;-82
2023/07/05 11:12:58;;;;;;;;;;;;;;;;;;;;;
2023/07/05 11:15:35;;;;;;;11.60;6.50;;;;;;;32.13;23.48;100034.77;110198;1265;21983;-80
2023/07/05 11:18:22;;;;;;;9.00;6.00;;;;;;;32.20;23.41;100028.70;110411;1262;22026;-82
2023/07/05 11:21:02;;;;;;;9.10;5.30;;;;;;;32.13;23.48;100031.23;110749;1262;21982;-83
2023/07/05 11:23:57;;;;;;;7.50;5.70;;;;;;;32.01;23.66;100029.17;110813;1260;24144;-81
2023/07/05 11:26:40;;;;;;;10.10;6.10;;;;;;;31.88;23.78;100032.00;110309;1268;22008;-83
2023/07/05 11:29:33;;;;;;;8.80;6.80;;;;;;;31.84;24.39;100026.37;109744;1268;24487;-81
2023/07/05 11:32:08;;;;;;;9.30;5.90;;;;;;;31.83;24.09;100015.55;110353;1257;23045;-82
2023/07/05 11:34:46;;;;;;;7.80;5.40;;;;;;;31.70;23.89;100002.70;109972;1268;21984;-83
2023/07/05 11:37:17;;;;;;;9.40;6.00;;;;;;;31.58;24.05;100003.98;109946;1269;23112;-82
2023/07/05 11:40:06;;;;;;;6.70;5.90;;;;;;;31.45;24.46;99997.25;110408;1268;23888;-83
2023/07/05 11:43:41;;;;;;;6.90;5.90;;;;;;;31.31;24.29;99994.36;109836;1268;21936;-84
2023/07/05 11:46:44;;;;;;;8.30;5.70;;;;;;;31.18;24.42;99986.20;110607;1264;22058;-82
2023/07/05 11:49:29;;;;;;;7.40;6.40;;;;;;;31.22;24.60;99976.45;110537;1256;21982;-81
2023/07/05 11:52:48;;;;;;;11.30;6.50;;;;;;;31.33;24.56;99972.05;110807;1262;22389;-82
2023/07/05 11:55:42;;;;;;;10.30;6.60;;;;;;;31.28;24.11;99968.23;110366;1266;22643;-81
2023/07/05 11:58:30;;;;;;;8.50;5.80;;;;;;;31.31;24.42;99969.23;110245;1265;21968;-84
2023/07/05 12:01:05;;;;;;;11.10;5.30;;;;;;;31.30;24.02;99962.38;110314;1253;22894;-80
2023/07/05 12:04:01;;;;;;;6.50;5.30;;;;;;;31.18;23.93;99959.23;110487;1266;21970;-80
2023/07/05 12:06:48;;;;;;;8.70;6.20;;;;;;;31.03;23.98;99955.08;110563;1258;23045;-81
2023/07/05 12:10:02;;;;;;;6.40;5.40;;;;;;;31.00;24.32;99952.99;110311;1262;21976;-79
2023/07/05 12:12:54;;;;;;;7.00;5.00;;;;;;;30.96;24.37;99950.20;110698;1262;23293;-83
2023/07/05 12:15:53;;;;;;;9.50;8.50;;;;;;;30.95;24.38;99943.65;109906;1269;21984;-82
2023/07/05 12:18:38;;;;;;;7.30;5.00;;;;;;;30.90;24.46;99944.80;109769;1270;21996;-83
2023/07/05 12:21:18;;;;;;;6.90;4.90;;;;;;;30.84;24.54;99942.65;109158;1275;23507;-83
2023/07/05 12:23:59;;;;;;;5.60;5.00;;;;;;;30.77;24.73;99940.17;109325;1276;23634;-84
2023/07/05 12:26:48;;;;;;;7.10;5.20;;;;;;;30.62;24.86;99927.67;109217;1271;22062;-83
2023/07/05 12:29:37;;;;;;;7.60;5.60;;;;;;;30.63;25.07;99935.09;109285;1273;22078;-81
2023/07/05 12:32:39;;;;;;;9.20;4.90;;;;;;;30.61;25.08;99928.58;108983;1278;22009;-80
2023/07/05 12:35:22;;;;;;;7.50;5.30;;;;;;;30.53;25.20;99924.64;109830;1267;22052;-82
2023/07/05 12:38:27;;;;;;;6.50;4.90;;;;;;;30.47;25.64;99923.58;110109;1270;21972;-81
2023/07/05 12:41:17;;;;;;;8.60;5.10;;;;;;;30.47;25.44;99923.13;110531;1268;23074;-82
2023/07/05 12:44:03;;;;;;;6.20;4.70;;;;;;;30.50;25.29;99922.77;110444;1268;22022;-80
2023/07/05 12:47:12;;;;;;;11.60;5.30;;;;;;;30.51;25.26;99914.27;109984;1268;21974;-81
2023/07/05 12:50:06;;;;;;;9.00;5.50;;;;;;;30.41;25.36;99902.98;109526;1273;21983;-82
2023/07/05 12:52:57;;;;;;;8.90;5.10;;;;;;;30.36;25.33;99918.68;109675;1272;22043;-82
2023/07/05 12:55:40;;;;;;;7.40;5.70;;;;;;;30.27;25.66;99918.40;109324;1276;22009;-82
2023/07/05 12:58:13;;;;;;;10.60;5.90;;;;;;;30.25;25.83;99922.20;109633;1273;21976;-81
2023/07/05 13:01:07;;;;;;;8.20;5.90;;;;;;;30.19;25.85;99922.45;110078;1265;22346;-82
2023/07/05 13:04:06;;;;;;;6.80;5.10;;;;;;;30.11;25.99;99923.64;110468;1265;22004;-84
2023/07/05 13:07:42;;;;;;;;;;;;;;;;;;;;;
2023/07/05 13:11:10;;;;;;;9.40;6.00;;;;;;;29.72;26.80;99921.21;110295;1265;22382;-82
2023/07/05 13:14:26;;;;;;;6.80;5.60;;;;;;;29.58;27.25;99927.05;109987;1264;22551;-82
2023/07/05 13:17:28;;;;;;;8.50;5.10;;;;;;;29.46;27.73;99929.42;110043;1268;23074;-83
2023/07/05 13:20:29;;;;;;;9.10;4.70;;;;;;;29.35;28.32;99940.81;110090;1269;23186;-81